createdAt,value
2017-12-20T00:00:19.680Z,75.50
2017-12-20T00:01:19.688Z,82.30
2017-12-20T00:02:19.685Z,76.20
2017-12-20T00:03:19.699Z,79.50
2017-12-20T00:04:19.702Z,85.20
2017-12-20T00:05:19.715Z,76.80
2017-12-20T00:06:19.710Z,80.30
2017-12-20T00:07:19.728Z,78.00
2017-12-20T00:08:19.742Z,76.70
2017-12-20T00:09:19.748Z,79.60
2017-12-20T00:10:19.749Z,81.20
2017-12-20T00:11:19.758Z,68.20
2017-12-20T00:12:19.778Z,80.50
2017-12-20T00:13:19.770Z,79.00
2017-12-20T00:14:19.775Z,75.30
2017-12-20T00:15:19.785Z,83.30
2017-12-20T00:16:19.796Z,82.90
2017-12-20T00:17:19.798Z,90.60
2017-12-20T00:18:19.804Z,77.90
2017-12-20T00:19:19.840Z,84.40
2017-12-20T00:20:19.822Z,78.90
2017-12-20T00:21:19.826Z,80.90
2017-12-20T00:22:19.941Z,76.30
2017-12-20T00:23:19.845Z,84.20
2017-12-20T00:24:19.852Z,86.90
2017-12-20T00:25:19.846Z,86.70
2017-12-20T00:26:19.860Z,80.70
2017-12-20T00:27:19.872Z,84.40
2017-12-20T00:28:19.875Z,80.20
2017-12-20T00:29:19.884Z,83.30
2017-12-20T00:30:19.890Z,76.60
2017-12-20T00:31:19.897Z,80.90
2017-12-20T00:32:19.897Z,80.90
2017-12-20T00:33:19.915Z,79.70
2017-12-20T00:34:19.914Z,77.30
2017-12-20T00:35:19.912Z,84.70
2017-12-20T00:36:19.933Z,87.40
2017-12-20T00:37:19.974Z,81.40
2017-12-20T00:38:19.935Z,79.20
2017-12-20T00:39:19.947Z,83.90
2017-12-20T00:40:19.960Z,81.20
2017-12-20T00:41:19.976Z,84.50
2017-12-20T00:42:19.976Z,86.80
2017-12-20T00:43:19.985Z,83.20
2017-12-20T00:44:19.988Z,82.50
2017-12-20T00:45:19.996Z,82.30
2017-12-20T00:46:20.003Z,85.50
2017-12-20T00:47:20.074Z,82.60
2017-12-20T00:48:20.013Z,84.80
2017-12-20T00:49:20.020Z,82.30
2017-12-20T00:50:20.022Z,86.40
2017-12-20T00:51:20.039Z,88.40
2017-12-20T00:52:20.041Z,81.80
2017-12-20T00:53:20.048Z,94.00
2017-12-20T00:54:20.056Z,88.50
2017-12-20T00:55:20.063Z,88.20
2017-12-20T00:56:20.069Z,89.80
2017-12-20T00:57:20.067Z,96.70
2017-12-20T00:58:20.071Z,90.00
2017-12-20T00:59:20.082Z,84.80
2017-12-20T01:00:20.097Z,95.10
2017-12-20T01:01:20.102Z,90.50
2017-12-20T01:02:20.110Z,92.90
2017-12-20T01:03:20.117Z,96.60
2017-12-20T01:04:20.124Z,97.50
2017-12-20T01:05:20.131Z,96.50
2017-12-20T01:06:20.151Z,92.20
2017-12-20T01:07:20.151Z,101.20
2017-12-20T01:08:20.157Z,94.90
2017-12-20T01:09:20.147Z,98.20
2017-12-20T01:10:20.171Z,102.10
2017-12-20T01:11:20.184Z,99.00
2017-12-20T01:12:20.187Z,106.80
2017-12-20T01:13:20.185Z,109.20
2017-12-20T01:14:20.196Z,104.40
2017-12-20T01:15:20.206Z,115.50
2017-12-20T01:16:20.210Z,110.70
2017-12-20T01:17:20.216Z,106.60
2017-12-20T01:18:20.231Z,118.60
2017-12-20T01:19:20.231Z,116.90
2017-12-20T01:20:20.238Z,104.80
2017-12-20T01:21:20.245Z,116.10
2017-12-20T01:22:20.251Z,109.90
2017-12-20T01:23:20.256Z,113.30
2017-12-20T01:24:20.266Z,112.30
2017-12-20T01:25:20.272Z,115.10
2017-12-20T01:26:20.282Z,108.30
2017-12-20T01:27:20.286Z,117.30
2017-12-20T01:28:21.243Z,112.90
2017-12-20T01:29:20.298Z,109.80
2017-12-20T01:30:20.307Z,109.40
2017-12-20T01:31:20.323Z,109.10
2017-12-20T01:32:20.322Z,113.20
2017-12-20T01:33:20.326Z,112.20
2017-12-20T01:34:20.343Z,122.40
2017-12-20T01:35:20.342Z,113.20
2017-12-20T01:36:20.354Z,124.40
2017-12-20T01:37:20.358Z,122.70
2017-12-20T01:38:20.359Z,116.60
2017-12-20T01:39:20.371Z,123.20
2017-12-20T01:40:20.384Z,122.20
2017-12-20T01:41:20.393Z,121.90
2017-12-20T01:42:20.395Z,120.00
2017-12-20T01:43:20.404Z,115.80
2017-12-20T01:44:20.411Z,116.10
2017-12-20T01:45:20.411Z,114.80
2017-12-20T01:46:20.419Z,119.20
2017-12-20T01:47:20.433Z,137.50
2017-12-20T01:48:20.438Z,121.30
2017-12-20T01:49:20.444Z,121.90
2017-12-20T01:50:20.449Z,129.90
2017-12-20T01:51:20.458Z,126.60
2017-12-20T01:52:20.465Z,139.50
2017-12-20T01:53:20.464Z,132.30
2017-12-20T01:54:20.477Z,134.40
2017-12-20T01:55:20.488Z,148.80
2017-12-20T01:56:20.504Z,134.90
2017-12-20T01:57:20.494Z,130.60
2017-12-20T01:58:20.510Z,141.60
2017-12-20T01:59:20.510Z,144.20
2017-12-20T02:00:20.522Z,138.20
2017-12-20T02:01:20.525Z,142.20
2017-12-20T02:02:20.533Z,140.90
2017-12-20T02:03:20.533Z,142.30
2017-12-20T02:04:20.550Z,145.60
2017-12-20T02:05:20.553Z,144.30
2017-12-20T02:06:20.566Z,133.90
2017-12-20T02:07:20.572Z,130.40
2017-12-20T02:08:20.582Z,145.20
2017-12-20T02:09:20.576Z,140.40
2017-12-20T02:10:20.582Z,132.00
2017-12-20T02:11:20.595Z,142.70
2017-12-20T02:12:20.603Z,146.00
2017-12-20T02:13:20.608Z,133.60
2017-12-20T02:14:20.613Z,129.70
2017-12-20T02:15:20.622Z,137.90
2017-12-20T02:16:20.632Z,137.10
2017-12-20T02:17:20.635Z,141.90
2017-12-20T02:18:20.638Z,145.00
2017-12-20T02:19:20.733Z,138.70
2017-12-20T02:20:20.657Z,129.20
2017-12-20T02:21:20.665Z,142.30
2017-12-20T02:22:20.682Z,154.20
2017-12-20T02:23:20.677Z,142.90
2017-12-20T02:24:20.689Z,137.90
2017-12-20T02:25:20.687Z,139.20
2017-12-20T02:26:20.699Z,141.50
2017-12-20T02:27:20.705Z,148.90
2017-12-20T02:28:20.711Z,144.40
2017-12-20T02:29:20.719Z,129.10
2017-12-20T02:30:20.730Z,135.30
2017-12-20T02:31:20.734Z,132.30
2017-12-20T02:32:20.738Z,151.00
2017-12-20T02:33:20.744Z,134.60
2017-12-20T02:34:20.750Z,143.20
2017-12-20T02:35:20.762Z,141.00
2017-12-20T02:36:20.762Z,154.20
2017-12-20T02:37:20.773Z,164.20
2017-12-20T02:38:20.781Z,167.70
2017-12-20T02:39:20.787Z,147.20
2017-12-20T02:40:20.789Z,163.40
2017-12-20T02:41:20.802Z,167.30
2017-12-20T02:42:20.812Z,145.90
2017-12-20T02:43:20.816Z,165.50
2017-12-20T02:44:20.823Z,157.10
2017-12-20T02:45:20.832Z,158.50
2017-12-20T02:46:20.840Z,162.40
2017-12-20T02:47:20.847Z,160.20
2017-12-20T02:48:20.854Z,168.60
2017-12-20T02:49:20.859Z,157.80
2017-12-20T02:50:20.876Z,140.60
2017-12-20T02:51:20.873Z,143.10
2017-12-20T02:52:20.881Z,150.20
2017-12-20T02:53:20.882Z,147.20
2017-12-20T02:54:20.894Z,140.30
2017-12-20T02:55:20.901Z,157.50
2017-12-20T02:56:20.904Z,146.20
2017-12-20T02:57:20.992Z,139.90
2017-12-20T02:58:20.923Z,155.30
2017-12-20T02:59:20.925Z,167.80
2017-12-20T03:00:20.938Z,168.10
2017-12-20T03:01:20.944Z,163.20
2017-12-20T03:02:20.946Z,182.30
2017-12-20T03:03:20.959Z,174.20
2017-12-20T03:04:20.966Z,156.00
2017-12-20T03:05:20.967Z,164.70
2017-12-20T03:06:20.971Z,180.10
2017-12-20T03:07:20.978Z,175.30
2017-12-20T03:08:20.986Z,184.10
2017-12-20T03:09:20.998Z,181.40
2017-12-20T03:10:21.009Z,179.80
2017-12-20T03:11:21.006Z,176.00
2017-12-20T03:12:21.018Z,179.00
2017-12-20T03:13:21.027Z,199.00
2017-12-20T03:14:21.031Z,173.70
2017-12-20T03:15:21.041Z,175.10
2017-12-20T03:16:21.042Z,202.40
2017-12-20T03:17:21.047Z,191.20
2017-12-20T03:18:21.061Z,186.60
2017-12-20T03:19:21.068Z,192.00
2017-12-20T03:20:21.091Z,187.70
2017-12-20T03:21:21.084Z,205.00
2017-12-20T03:22:21.090Z,187.30
2017-12-20T03:23:21.106Z,198.00
2017-12-20T03:24:21.102Z,193.50
2017-12-20T03:25:21.110Z,188.50
2017-12-20T03:26:21.116Z,205.20
2017-12-20T03:27:21.121Z,214.80
2017-12-20T03:28:21.130Z,199.90
2017-12-20T03:29:21.146Z,199.10
2017-12-20T03:30:21.145Z,208.90
2017-12-20T03:31:21.149Z,198.00
2017-12-20T03:32:21.160Z,215.40
2017-12-20T03:33:21.162Z,209.00
2017-12-20T03:34:21.171Z,203.10
2017-12-20T03:35:21.176Z,208.30
2017-12-20T03:36:21.187Z,219.30
2017-12-20T03:37:21.188Z,217.70
2017-12-20T03:38:21.205Z,222.20
2017-12-20T03:39:21.206Z,216.80
2017-12-20T03:40:21.216Z,215.70
2017-12-20T03:41:21.218Z,231.00
2017-12-20T03:42:21.226Z,205.40
2017-12-20T03:43:21.236Z,215.20
2017-12-20T03:44:21.239Z,220.90
2017-12-20T03:45:21.246Z,206.50
2017-12-20T03:46:21.258Z,232.20
2017-12-20T03:47:21.273Z,227.30
2017-12-20T03:48:21.316Z,214.90
2017-12-20T03:49:21.273Z,225.60
2017-12-20T03:50:21.279Z,218.00
2017-12-20T03:51:21.293Z,228.70
2017-12-20T03:52:21.299Z,224.30
2017-12-20T03:53:21.302Z,224.20
2017-12-20T03:54:21.309Z,238.10
2017-12-20T03:55:21.316Z,247.10
2017-12-20T03:56:21.323Z,223.60
2017-12-20T03:57:21.325Z,233.00
2017-12-20T03:58:21.329Z,238.10
2017-12-20T03:59:21.346Z,242.10
2017-12-20T04:00:21.354Z,237.70
2017-12-20T04:01:21.357Z,251.30
2017-12-20T04:02:21.365Z,245.00
2017-12-20T04:03:21.370Z,234.50
2017-12-20T04:04:21.378Z,233.20
2017-12-20T04:05:21.385Z,226.20
2017-12-20T04:06:21.394Z,241.20
2017-12-20T04:07:21.393Z,266.60
2017-12-20T04:08:21.405Z,240.60
2017-12-20T04:09:21.416Z,267.40
2017-12-20T04:10:21.422Z,244.90
2017-12-20T04:11:21.496Z,241.20
2017-12-20T04:12:21.439Z,228.60
2017-12-20T04:13:21.437Z,230.80
2017-12-20T04:14:21.450Z,225.50
2017-12-20T04:15:21.458Z,226.90
2017-12-20T04:16:21.457Z,240.70
2017-12-20T04:17:21.473Z,227.40
2017-12-20T04:18:21.480Z,235.60
2017-12-20T04:19:21.483Z,231.60
2017-12-20T04:20:21.499Z,222.00
2017-12-20T04:21:21.497Z,231.70
2017-12-20T04:22:21.499Z,234.20
2017-12-20T04:23:21.509Z,222.40
2017-12-20T04:24:21.519Z,228.70
2017-12-20T04:25:21.519Z,221.30
2017-12-20T04:26:21.538Z,226.20
2017-12-20T04:27:21.538Z,219.60
2017-12-20T04:28:21.551Z,188.50
2017-12-20T04:29:21.546Z,206.40
2017-12-20T04:30:21.560Z,202.50
2017-12-20T04:31:21.568Z,203.70
2017-12-20T04:32:21.584Z,209.60
2017-12-20T04:33:21.576Z,199.70
2017-12-20T04:34:21.592Z,222.30
2017-12-20T04:35:21.599Z,220.80
2017-12-20T04:36:21.609Z,212.30
2017-12-20T04:37:21.611Z,195.10
2017-12-20T04:38:21.622Z,201.40
2017-12-20T04:39:21.625Z,192.70
2017-12-20T04:40:21.630Z,211.20
2017-12-20T04:41:21.631Z,204.10
2017-12-20T04:42:21.647Z,202.70
2017-12-20T04:43:21.653Z,206.40
2017-12-20T04:44:21.658Z,192.30
2017-12-20T04:45:21.670Z,194.00
2017-12-20T04:46:21.672Z,194.40
2017-12-20T04:47:21.677Z,200.90
2017-12-20T04:48:21.682Z,194.70
2017-12-20T04:49:22.263Z,183.80
2017-12-20T04:50:21.701Z,188.80
2017-12-20T04:51:21.711Z,182.70
2017-12-20T04:52:21.717Z,201.60
2017-12-20T04:53:21.727Z,195.40
2017-12-20T04:54:21.729Z,178.10
2017-12-20T04:55:21.735Z,186.60
2017-12-20T04:56:21.741Z,185.20
2017-12-20T04:57:21.746Z,196.60
2017-12-20T04:58:21.758Z,173.30
2017-12-20T04:59:21.808Z,181.30
2017-12-20T05:00:21.775Z,179.90
2017-12-20T05:01:21.793Z,183.30
2017-12-20T05:02:21.782Z,181.60
2017-12-20T05:03:21.798Z,178.50
2017-12-20T05:04:21.800Z,175.20
2017-12-20T05:05:21.814Z,172.80
2017-12-20T05:06:21.816Z,179.40
2017-12-20T05:07:21.818Z,185.00
2017-12-20T05:08:21.829Z,171.70
2017-12-20T05:09:21.840Z,167.50
2017-12-20T05:10:21.843Z,184.10
2017-12-20T05:11:21.849Z,160.10
2017-12-20T05:12:21.875Z,162.00
2017-12-20T05:13:21.865Z,164.30
2017-12-20T05:14:21.872Z,167.60
2017-12-20T05:15:21.883Z,156.00
2017-12-20T05:16:21.885Z,157.20
2017-12-20T05:17:21.895Z,174.20
2017-12-20T05:18:21.897Z,160.40
2017-12-20T05:19:21.905Z,172.20
2017-12-20T05:20:21.915Z,163.50
2017-12-20T05:21:21.917Z,162.00
2017-12-20T05:22:21.925Z,162.70
2017-12-20T05:23:21.935Z,164.60
2017-12-20T05:24:21.939Z,165.90
2017-12-20T05:25:21.946Z,171.90
2017-12-20T05:26:21.965Z,162.40
2017-12-20T05:27:22.017Z,169.60
2017-12-20T05:28:21.973Z,185.30
2017-12-20T05:29:21.984Z,182.60
2017-12-20T05:30:21.985Z,176.80
2017-12-20T05:31:22.047Z,182.10
2017-12-20T05:32:22.003Z,185.00
2017-12-20T05:33:22.010Z,184.50
2017-12-20T05:34:22.018Z,180.50
2017-12-20T05:35:22.024Z,193.80
2017-12-20T05:36:22.028Z,176.00
2017-12-20T05:37:22.050Z,171.20
2017-12-20T05:38:22.044Z,190.80
2017-12-20T05:39:22.060Z,177.40
2017-12-20T05:41:22.061Z,168.30
2017-12-20T05:42:22.073Z,173.30
2017-12-20T05:43:22.076Z,165.50
2017-12-20T05:44:22.082Z,162.40
2017-12-20T05:45:22.092Z,171.20
2017-12-20T05:46:22.096Z,165.00
2017-12-20T05:47:22.107Z,175.90
2017-12-20T05:48:22.108Z,160.10
2017-12-20T05:49:22.122Z,155.60
2017-12-20T05:50:22.128Z,162.80
2017-12-20T05:51:22.133Z,150.50
2017-12-20T05:52:22.143Z,157.20
2017-12-20T05:53:22.153Z,159.40
2017-12-20T05:54:22.154Z,158.50
2017-12-20T05:56:22.165Z,142.00
2017-12-20T05:57:22.188Z,149.70
2017-12-20T05:58:22.182Z,148.00
2017-12-20T05:59:22.185Z,151.20
2017-12-20T06:00:22.198Z,140.10
2017-12-20T06:01:22.201Z,141.30
2017-12-20T06:02:22.211Z,137.60
2017-12-20T06:03:22.225Z,138.10
2017-12-20T06:04:22.232Z,142.50
2017-12-20T06:05:22.226Z,154.90
2017-12-20T06:06:22.238Z,144.20
2017-12-20T06:07:22.245Z,147.90
2017-12-20T06:08:22.253Z,141.70
2017-12-20T06:09:22.251Z,144.60
2017-12-20T06:10:22.264Z,143.20
2017-12-20T06:11:22.273Z,140.60
2017-12-20T06:12:22.280Z,139.50
2017-12-20T06:13:22.286Z,129.30
2017-12-20T06:14:22.293Z,135.30
2017-12-20T06:15:22.300Z,133.00
2017-12-20T06:16:22.305Z,130.20
2017-12-20T06:17:22.310Z,142.40
2017-12-20T06:18:22.325Z,128.80
2017-12-20T06:19:22.325Z,134.70
2017-12-20T06:20:22.334Z,135.00
2017-12-20T06:21:22.336Z,132.40
2017-12-20T06:22:22.347Z,133.90
2017-12-20T06:23:22.351Z,129.90
2017-12-20T06:24:22.364Z,135.50
2017-12-20T06:25:22.368Z,148.20
2017-12-20T06:26:22.382Z,144.70
2017-12-20T06:27:22.383Z,141.70
2017-12-20T06:28:22.485Z,147.70
2017-12-20T06:29:22.398Z,151.80
2017-12-20T06:30:22.407Z,140.90
2017-12-20T06:31:22.408Z,138.60
2017-12-20T06:32:22.419Z,123.70
2017-12-20T06:33:22.425Z,140.50
2017-12-20T06:34:22.430Z,145.50
2017-12-20T06:35:22.440Z,149.10
2017-12-20T06:36:22.459Z,135.10
2017-12-20T06:37:22.455Z,147.30
2017-12-20T06:38:22.464Z,149.00
2017-12-20T06:39:22.469Z,153.40
2017-12-20T06:40:22.474Z,154.40
2017-12-20T06:41:22.535Z,138.50
2017-12-20T06:42:22.502Z,140.20
2017-12-20T06:43:22.494Z,148.70
2017-12-20T06:44:22.501Z,141.70
2017-12-20T06:45:22.512Z,139.40
2017-12-20T06:46:22.524Z,145.50
2017-12-20T06:47:22.523Z,140.50
2017-12-20T06:48:22.532Z,146.40
2017-12-20T06:49:22.547Z,135.70
2017-12-20T06:50:22.553Z,152.60
2017-12-20T06:51:22.615Z,148.00
2017-12-20T06:52:22.563Z,153.70
2017-12-20T06:53:22.569Z,145.70
2017-12-20T06:54:22.576Z,149.30
2017-12-20T06:55:22.583Z,165.00
2017-12-20T06:56:22.589Z,164.50
2017-12-20T06:57:22.593Z,159.70
2017-12-20T06:58:22.601Z,165.40
2017-12-20T06:59:22.606Z,153.80
2017-12-20T07:00:22.614Z,152.90
2017-12-20T07:01:22.620Z,158.70
2017-12-20T07:02:22.629Z,148.20
2017-12-20T07:03:22.633Z,161.20
2017-12-20T07:04:22.645Z,167.70
2017-12-20T07:05:22.654Z,157.30
2017-12-20T07:06:22.760Z,160.60
2017-12-20T07:07:22.685Z,156.80
2017-12-20T07:08:22.674Z,164.00
2017-12-20T07:09:22.709Z,166.00
2017-12-20T07:10:22.694Z,160.00
2017-12-20T07:11:22.731Z,157.00
2017-12-20T07:12:22.699Z,161.20
2017-12-20T07:13:22.714Z,146.80
2017-12-20T07:14:22.723Z,154.00
2017-12-20T07:15:22.736Z,154.30
2017-12-20T07:16:22.732Z,149.50
2017-12-20T07:17:22.740Z,152.80
2017-12-20T07:18:22.753Z,154.10
2017-12-20T07:19:22.781Z,151.70
2017-12-20T07:20:22.763Z,148.20
2017-12-20T07:21:22.770Z,154.30
2017-12-20T07:22:22.779Z,139.00
2017-12-20T07:23:22.791Z,159.00
2017-12-20T07:24:22.792Z,147.40
2017-12-20T07:25:22.795Z,152.70
2017-12-20T07:26:22.810Z,155.30
2017-12-20T07:27:22.817Z,151.70
2017-12-20T07:28:22.824Z,160.70
2017-12-20T07:29:22.838Z,154.00
2017-12-20T07:30:22.835Z,158.00
2017-12-20T07:32:22.857Z,144.10
2017-12-20T07:33:22.860Z,139.30
2017-12-20T07:34:22.867Z,138.90
2017-12-20T07:35:22.893Z,139.80
2017-12-20T07:36:22.878Z,149.90
2017-12-20T07:37:22.890Z,140.90
2017-12-20T07:38:22.896Z,140.80
2017-12-20T07:39:22.920Z,136.90
2017-12-20T07:40:22.917Z,146.60
2017-12-20T07:41:22.930Z,143.10
2017-12-20T07:42:22.932Z,137.50
2017-12-20T07:43:22.937Z,150.20
2017-12-20T07:44:22.946Z,135.10
2017-12-20T07:46:22.954Z,141.90
2017-12-20T07:48:53.300Z,134.00
2017-12-20T08:01:32.742Z,146.30
2017-12-20T08:02:32.746Z,137.60
2017-12-20T08:03:32.749Z,137.20
2017-12-20T08:04:32.758Z,125.70
2017-12-20T08:05:32.772Z,125.10
2017-12-20T08:06:32.771Z,119.20
2017-12-20T08:07:32.782Z,128.50
2017-12-20T08:08:32.853Z,129.60
2017-12-20T08:10:32.819Z,117.80
2017-12-20T08:11:53.823Z,106.80
2017-12-20T08:12:32.821Z,112.70
2017-12-20T08:13:32.829Z,125.90
2017-12-20T08:14:32.843Z,112.40
2017-12-20T08:15:32.845Z,126.20
2017-12-20T08:17:32.856Z,139.30
2017-12-20T08:19:50.644Z,124.70
2017-12-20T08:39:36.777Z,111.80
2017-12-20T08:40:36.780Z,95.00
2017-12-20T08:41:36.795Z,91.00
2017-12-20T08:42:36.794Z,84.70
2017-12-20T08:43:36.804Z,83.90
2017-12-20T08:44:36.803Z,88.60
2017-12-20T08:45:36.825Z,97.00
2017-12-20T08:46:36.826Z,87.60
2017-12-20T08:47:36.838Z,91.50
2017-12-20T08:48:36.846Z,90.40
2017-12-20T08:49:36.852Z,87.00
2017-12-20T08:50:36.862Z,88.30
2017-12-20T08:51:36.865Z,85.40
2017-12-20T08:52:36.875Z,82.30
2017-12-20T08:53:36.884Z,84.20
2017-12-20T08:54:36.894Z,88.70
2017-12-20T08:55:36.897Z,92.70
2017-12-20T08:56:36.891Z,91.90
2017-12-20T08:57:36.913Z,87.00
2017-12-20T08:58:36.918Z,91.00
2017-12-20T08:59:36.929Z,89.70
2017-12-20T09:00:36.939Z,88.40
2017-12-20T09:01:36.941Z,95.30
2017-12-20T09:02:36.951Z,97.70
2017-12-20T09:03:36.961Z,88.70
2017-12-20T09:04:36.973Z,90.40
2017-12-20T09:05:36.972Z,93.60
2017-12-20T09:06:36.975Z,87.60
2017-12-20T09:07:36.992Z,90.60
2017-12-20T09:08:36.999Z,91.00
2017-12-20T09:09:37.012Z,93.80
2017-12-20T09:10:37.009Z,86.80
2017-12-20T09:11:37.041Z,92.30
2017-12-20T09:12:37.030Z,88.90
2017-12-20T09:13:37.038Z,95.80
2017-12-20T09:14:37.044Z,89.50
2017-12-20T09:15:37.053Z,87.20
2017-12-20T09:16:37.054Z,91.60
2017-12-20T09:17:37.068Z,94.30
2017-12-20T09:18:37.077Z,89.90
2017-12-20T09:20:37.097Z,97.90
2017-12-20T09:21:37.104Z,98.90
2017-12-20T09:22:37.114Z,101.00
2017-12-20T09:23:37.108Z,98.70
2017-12-20T09:24:37.130Z,98.50
2017-12-20T09:25:37.136Z,98.50
2017-12-20T09:26:37.135Z,104.10
2017-12-20T09:27:37.170Z,106.70
2017-12-20T09:28:37.155Z,108.70
2017-12-20T09:29:37.160Z,103.20
2017-12-20T09:30:37.172Z,121.00
2017-12-20T09:31:37.223Z,116.00
2017-12-20T09:32:37.189Z,117.50
2017-12-20T09:33:37.200Z,112.80
2017-12-20T09:34:37.198Z,111.70
2017-12-20T09:35:37.209Z,114.40
2017-12-20T09:36:37.227Z,117.30
2017-12-20T09:37:37.234Z,108.50
2017-12-20T09:38:37.239Z,124.70
2017-12-20T09:39:37.236Z,119.90
2017-12-20T09:40:37.253Z,116.60
2017-12-20T09:41:37.263Z,115.30
2017-12-20T09:42:37.273Z,117.20
2017-12-20T09:43:37.277Z,120.70
2017-12-20T09:44:37.292Z,128.90
2017-12-20T09:45:37.288Z,115.20
2017-12-20T09:46:37.301Z,126.20
2017-12-20T09:47:37.798Z,123.60
2017-12-20T09:48:37.320Z,116.80
2017-12-20T09:49:37.322Z,111.50
2017-12-20T09:50:37.329Z,120.50
2017-12-20T09:51:37.368Z,122.60
2017-12-20T09:52:37.347Z,119.40
2017-12-20T09:54:37.361Z,123.90
2017-12-20T09:55:37.367Z,126.30
2017-12-20T09:56:37.374Z,135.50
2017-12-20T09:57:37.387Z,128.70
2017-12-20T09:58:37.390Z,126.70
2017-12-20T09:59:37.397Z,115.10
2017-12-20T10:00:37.408Z,126.60
2017-12-20T10:01:37.412Z,117.10
2017-12-20T10:02:37.512Z,122.30
2017-12-20T10:03:37.434Z,132.10
2017-12-20T10:04:37.441Z,137.80
2017-12-20T10:05:37.451Z,125.20
2017-12-20T10:06:37.456Z,122.40
2017-12-20T10:07:37.473Z,130.20
2017-12-20T10:08:37.473Z,119.10
2017-12-20T10:09:37.496Z,120.30
2017-12-20T10:10:37.493Z,122.20
2017-12-20T10:11:37.486Z,130.40
2017-12-20T10:12:38.309Z,123.90
2017-12-20T10:13:37.511Z,119.90
2017-12-20T10:14:37.525Z,127.80
2017-12-20T10:15:37.527Z,125.00
2017-12-20T10:16:37.546Z,121.90
2017-12-20T10:17:37.547Z,124.60
2017-12-20T10:18:37.562Z,115.60
2017-12-20T10:19:37.557Z,126.00
2017-12-20T10:20:37.555Z,119.40
2017-12-20T10:21:37.579Z,125.80
2017-12-20T10:22:37.583Z,121.80
2017-12-20T10:23:37.593Z,116.70
2017-12-20T10:24:37.762Z,133.10
2017-12-20T10:25:37.631Z,124.20
2017-12-20T10:26:37.614Z,131.30
2017-12-20T10:27:37.632Z,128.00
2017-12-20T10:28:37.678Z,114.50
2017-12-20T10:29:37.635Z,116.30
2017-12-20T10:30:37.652Z,127.30
2017-12-20T10:31:37.666Z,109.90
2017-12-20T10:32:37.683Z,104.80
2017-12-20T10:33:37.676Z,112.80
2017-12-20T10:34:37.678Z,123.20
2017-12-20T10:35:37.727Z,119.10
2017-12-20T10:36:37.686Z,119.20
2017-12-20T10:37:37.708Z,126.80
2017-12-20T10:38:37.712Z,117.30
2017-12-20T10:39:37.713Z,126.60
2017-12-20T10:40:37.735Z,117.10
2017-12-20T10:41:37.728Z,119.70
2017-12-20T10:42:37.742Z,116.40
2017-12-20T10:43:37.754Z,117.60
2017-12-20T10:44:37.767Z,118.50
2017-12-20T10:45:37.768Z,124.40
2017-12-20T10:46:37.776Z,134.90
2017-12-20T10:47:37.788Z,116.50
2017-12-20T10:48:37.789Z,113.10
2017-12-20T10:49:37.799Z,120.60
2017-12-20T10:50:37.808Z,110.40
2017-12-20T10:51:37.813Z,101.40
2017-12-20T10:52:37.825Z,106.60
2017-12-20T10:53:37.844Z,96.90
2017-12-20T10:54:37.843Z,92.90
2017-12-20T10:55:37.854Z,94.70
2017-12-20T10:56:37.853Z,100.60
2017-12-20T10:57:37.885Z,112.50
2017-12-20T10:58:37.923Z,101.90
2017-12-20T10:59:38.013Z,97.70
2017-12-20T11:00:37.886Z,98.10
2017-12-20T11:01:37.894Z,95.80
2017-12-20T11:02:37.903Z,93.70
2017-12-20T11:03:37.951Z,89.80
2017-12-20T11:04:37.914Z,91.60
2017-12-20T11:05:37.936Z,94.80
2017-12-20T11:06:37.927Z,89.40
2017-12-20T11:07:37.945Z,89.30
2017-12-20T11:08:37.945Z,99.90
2017-12-20T11:09:37.975Z,91.80
2017-12-20T11:10:38.015Z,91.20
2017-12-20T11:11:38.012Z,94.20
2017-12-20T11:13:38.096Z,96.40
2017-12-20T11:14:37.998Z,87.80
2017-12-20T11:15:38.003Z,94.70
2017-12-20T11:16:38.012Z,93.20
2017-12-20T11:17:38.022Z,93.20
2017-12-20T11:18:38.027Z,90.50
2017-12-20T11:19:38.036Z,95.80
2017-12-20T11:20:38.044Z,97.60
2017-12-20T11:23:10.194Z,86.40
2017-12-20T11:42:41.771Z,89.30
2017-12-20T11:43:41.755Z,81.20
2017-12-20T11:44:41.753Z,92.80
2017-12-20T11:45:41.769Z,92.10
2017-12-20T11:46:41.765Z,82.60
2017-12-20T11:47:41.918Z,85.60
2017-12-20T11:48:41.789Z,83.10
2017-12-20T11:49:41.814Z,86.20
2017-12-20T11:50:41.800Z,90.80
2017-12-20T11:51:41.812Z,92.30
2017-12-20T11:52:41.822Z,91.50
2017-12-20T11:53:41.831Z,91.50
2017-12-20T11:54:41.846Z,90.10
2017-12-20T11:55:41.851Z,88.70
2017-12-20T11:56:41.857Z,93.00
2017-12-20T11:57:41.864Z,102.40
2017-12-20T11:58:41.867Z,96.40
2017-12-20T11:59:41.880Z,94.70
2017-12-20T12:00:41.886Z,91.50
2017-12-20T12:01:41.899Z,99.70
2017-12-20T12:02:41.908Z,91.50
2017-12-20T12:03:41.941Z,90.20
2017-12-20T12:04:41.927Z,94.40
2017-12-20T12:05:41.939Z,81.30
2017-12-20T12:06:41.942Z,97.10
2017-12-20T12:07:41.945Z,93.30
2017-12-20T12:08:41.967Z,111.10
2017-12-20T12:09:41.978Z,118.10
2017-12-20T12:10:41.975Z,111.30
2017-12-20T12:11:41.990Z,102.90
2017-12-20T12:12:42.000Z,97.80
2017-12-20T12:13:41.996Z,106.70
2017-12-20T12:14:42.016Z,101.60
2017-12-20T12:15:42.021Z,97.30
2017-12-20T12:16:42.027Z,102.90
2017-12-20T12:17:42.039Z,100.40
2017-12-20T12:18:42.064Z,105.10
2017-12-20T12:19:42.048Z,118.30
2017-12-20T12:20:42.070Z,100.60
2017-12-20T12:21:42.102Z,105.50
2017-12-20T12:22:42.098Z,95.00
2017-12-20T12:23:42.093Z,89.00
2017-12-20T12:24:42.105Z,92.50
2017-12-20T12:25:42.104Z,83.90
2017-12-20T12:26:42.105Z,92.30
2017-12-20T12:27:42.125Z,99.90
2017-12-20T12:28:42.134Z,96.20
2017-12-20T12:29:42.147Z,81.60
2017-12-20T12:30:42.161Z,84.90
2017-12-20T12:31:42.148Z,96.40
2017-12-20T12:32:42.160Z,88.90
2017-12-20T12:33:42.195Z,92.50
2017-12-20T12:34:42.193Z,99.60
2017-12-20T12:36:42.196Z,88.20
2017-12-20T12:37:42.203Z,93.80
2017-12-20T12:38:42.223Z,100.00
2017-12-20T12:39:42.220Z,105.50
2017-12-20T12:40:42.239Z,106.40
2017-12-20T12:41:42.242Z,105.50
2017-12-20T12:42:42.243Z,102.90
2017-12-20T12:43:42.252Z,90.70
2017-12-20T12:44:42.282Z,89.00
2017-12-20T12:45:42.279Z,99.00
2017-12-20T12:46:42.286Z,97.80
2017-12-20T12:47:42.290Z,100.60
2017-12-20T12:48:42.298Z,104.30
2017-12-20T12:49:42.307Z,99.00
2017-12-20T12:50:42.316Z,103.80
2017-12-20T12:51:42.327Z,109.20
2017-12-20T12:52:42.329Z,106.30
2017-12-20T12:53:42.339Z,104.40
2017-12-20T12:54:42.371Z,94.50
2017-12-20T12:55:42.356Z,105.80
2017-12-20T12:56:42.358Z,106.30
2017-12-20T12:57:42.374Z,106.20
2017-12-20T12:58:42.383Z,108.50
2017-12-20T12:59:42.389Z,114.10
2017-12-20T13:00:42.411Z,98.90
2017-12-20T13:01:42.448Z,101.90
2017-12-20T13:02:42.411Z,94.90
2017-12-20T13:03:42.431Z,94.80
2017-12-20T13:04:42.440Z,93.20
2017-12-20T13:05:42.444Z,102.40
2017-12-20T13:06:42.454Z,94.00
2017-12-20T13:07:42.481Z,96.20
2017-12-20T13:08:42.465Z,101.00
2017-12-20T13:09:42.481Z,90.30
2017-12-20T13:10:42.490Z,87.80
2017-12-20T13:11:42.492Z,91.10
2017-12-20T13:12:42.492Z,89.80
2017-12-20T13:13:42.512Z,90.20
2017-12-20T13:14:42.577Z,90.80
2017-12-20T13:15:42.528Z,89.40
2017-12-20T13:16:42.544Z,91.50
2017-12-20T13:17:42.538Z,88.10
2017-12-20T13:18:42.568Z,86.70
2017-12-20T13:19:42.569Z,84.80
2017-12-20T13:20:42.569Z,81.00
2017-12-20T13:21:42.578Z,82.40
2017-12-20T13:22:42.603Z,85.80
2017-12-20T13:23:42.592Z,83.60
2017-12-20T13:24:42.617Z,80.60
2017-12-20T13:25:42.607Z,75.10
2017-12-20T13:26:42.725Z,82.70
2017-12-20T13:27:42.738Z,82.70
2017-12-20T13:28:42.689Z,80.10
2017-12-20T13:29:42.645Z,78.00
2017-12-20T13:30:42.736Z,78.00
2017-12-20T13:31:42.659Z,80.40
2017-12-20T13:32:42.680Z,74.60
2017-12-20T13:33:42.680Z,73.40
2017-12-20T13:34:42.684Z,74.80
2017-12-20T13:35:42.690Z,69.00
2017-12-20T13:36:42.751Z,74.30
2017-12-20T13:37:42.723Z,74.20
2017-12-20T13:38:42.720Z,62.10